sensor_id;sensor_type;location;lat;lon;timestamp;temperature;humidity
78886;DHT22;68269;52.514;5.722;2023-07-31T00:00:11;16.90;69.20
78886;DHT22;68269;52.514;5.722;2023-07-31T00:02:41;16.90;69.20
78886;DHT22;68269;52.514;5.722;2023-07-31T00:05:10;16.90;69.20
78886;DHT22;68269;52.514;5.722;2023-07-31T00:07:42;16.90;69.30
78886;DHT22;68269;52.514;5.722;2023-07-31T00:10:11;16.90;69.30
78886;DHT22;68269;52.514;5.722;2023-07-31T00:12:43;17.00;69.30
78886;DHT22;68269;52.514;5.722;2023-07-31T00:15:13;17.00;69.30
78886;DHT22;68269;52.514;5.722;2023-07-31T00:17:42;16.90;69.40
78886;DHT22;68269;52.514;5.722;2023-07-31T00:20:11;16.90;69.50
78886;DHT22;68269;52.514;5.722;2023-07-31T00:22:43;16.90;69.50
78886;DHT22;68269;52.514;5.722;2023-07-31T00:25:13;16.90;69.60
78886;DHT22;68269;52.514;5.722;2023-07-31T00:27:42;16.90;69.60
78886;DHT22;68269;52.514;5.722;2023-07-31T00:30:12;16.90;69.60
78886;DHT22;68269;52.514;5.722;2023-07-31T00:32:42;16.90;69.70
78886;DHT22;68269;52.514;5.722;2023-07-31T00:35:11;16.90;69.70
78886;DHT22;68269;52.514;5.722;2023-07-31T00:37:43;16.90;69.80
78886;DHT22;68269;52.514;5.722;2023-07-31T00:40:13;16.90;69.80
78886;DHT22;68269;52.514;5.722;2023-07-31T00:42:42;16.90;69.80
78886;DHT22;68269;52.514;5.722;2023-07-31T00:45:12;17.00;69.70
78886;DHT22;68269;52.514;5.722;2023-07-31T00:47:41;17.00;69.80
78886;DHT22;68269;52.514;5.722;2023-07-31T00:50:10;17.00;69.80
78886;DHT22;68269;52.514;5.722;2023-07-31T00:52:42;17.00;69.90
78886;DHT22;68269;52.514;5.722;2023-07-31T00:55:12;17.00;69.90
78886;DHT22;68269;52.514;5.722;2023-07-31T00:57:41;17.00;69.90
78886;DHT22;68269;52.514;5.722;2023-07-31T01:00:12;17.00;70.00
78886;DHT22;68269;52.514;5.722;2023-07-31T01:02:41;17.00;70.00
78886;DHT22;68269;52.514;5.722;2023-07-31T01:05:10;17.10;70.00
78886;DHT22;68269;52.514;5.722;2023-07-31T01:07:48;17.10;70.00
78886;DHT22;68269;52.514;5.722;2023-07-31T01:10:23;17.10;70.10
78886;DHT22;68269;52.514;5.722;2023-07-31T01:12:53;17.10;70.20
78886;DHT22;68269;52.514;5.722;2023-07-31T01:15:25;17.20;70.20
78886;DHT22;68269;52.514;5.722;2023-07-31T01:17:54;17.20;70.20
78886;DHT22;68269;52.514;5.722;2023-07-31T01:20:26;17.20;70.20
78886;DHT22;68269;52.514;5.722;2023-07-31T01:23:30;17.20;70.30
78886;DHT22;68269;52.514;5.722;2023-07-31T01:26:11;17.20;70.50
78886;DHT22;68269;52.514;5.722;2023-07-31T01:28:50;17.20;70.50
78886;DHT22;68269;52.514;5.722;2023-07-31T01:31:24;17.20;70.50
78886;DHT22;68269;52.514;5.722;2023-07-31T01:33:56;17.20;70.50
78886;DHT22;68269;52.514;5.722;2023-07-31T01:36:25;17.30;70.50
78886;DHT22;68269;52.514;5.722;2023-07-31T01:38:58;17.30;70.50
78886;DHT22;68269;52.514;5.722;2023-07-31T01:41:30;17.30;70.60
78886;DHT22;68269;52.514;5.722;2023-07-31T01:43:59;17.40;70.70
78886;DHT22;68269;52.514;5.722;2023-07-31T01:46:29;17.40;70.70
78886;DHT22;68269;52.514;5.722;2023-07-31T01:48:58;17.40;70.80
78886;DHT22;68269;52.514;5.722;2023-07-31T01:51:27;17.40;70.80
78886;DHT22;68269;52.514;5.722;2023-07-31T01:54:00;17.40;70.80
78886;DHT22;68269;52.514;5.722;2023-07-31T01:56:32;17.50;70.80
78886;DHT22;68269;52.514;5.722;2023-07-31T01:59:01;17.50;70.90
78886;DHT22;68269;52.514;5.722;2023-07-31T02:01:31;17.50;70.90
78886;DHT22;68269;52.514;5.722;2023-07-31T02:04:00;17.50;70.90
78886;DHT22;68269;52.514;5.722;2023-07-31T02:06:31;17.50;71.00
78886;DHT22;68269;52.514;5.722;2023-07-31T02:09:01;17.50;71.10
78886;DHT22;68269;52.514;5.722;2023-07-31T02:11:34;17.50;71.10
78886;DHT22;68269;52.514;5.722;2023-07-31T02:14:04;17.50;71.20
78886;DHT22;68269;52.514;5.722;2023-07-31T02:16:33;17.50;71.20
78886;DHT22;68269;52.514;5.722;2023-07-31T02:19:02;17.50;71.30
78886;DHT22;68269;52.514;5.722;2023-07-31T02:21:32;17.50;71.40
78886;DHT22;68269;52.514;5.722;2023-07-31T02:24:01;17.50;71.40
78886;DHT22;68269;52.514;5.722;2023-07-31T02:26:31;17.50;71.50
78886;DHT22;68269;52.514;5.722;2023-07-31T02:29:02;17.50;71.50
78886;DHT22;68269;52.514;5.722;2023-07-31T02:31:32;17.50;71.60
78886;DHT22;68269;52.514;5.722;2023-07-31T02:34:01;17.50;71.60
78886;DHT22;68269;52.514;5.722;2023-07-31T02:36:30;17.50;71.60
78886;DHT22;68269;52.514;5.722;2023-07-31T02:38:59;17.50;71.60
78886;DHT22;68269;52.514;5.722;2023-07-31T02:41:29;17.50;71.60
78886;DHT22;68269;52.514;5.722;2023-07-31T02:43:58;17.50;71.70
78886;DHT22;68269;52.514;5.722;2023-07-31T02:46:30;17.50;71.70
78886;DHT22;68269;52.514;5.722;2023-07-31T02:48:59;17.50;71.80
78886;DHT22;68269;52.514;5.722;2023-07-31T02:51:29;17.50;71.80
78886;DHT22;68269;52.514;5.722;2023-07-31T02:53:58;17.50;71.80
78886;DHT22;68269;52.514;5.722;2023-07-31T02:56:27;17.50;71.90
78886;DHT22;68269;52.514;5.722;2023-07-31T02:58:56;17.50;71.90
78886;DHT22;68269;52.514;5.722;2023-07-31T03:01:26;17.50;71.90
78886;DHT22;68269;52.514;5.722;2023-07-31T03:03:58;17.50;71.90
78886;DHT22;68269;52.514;5.722;2023-07-31T03:06:27;17.50;72.00
78886;DHT22;68269;52.514;5.722;2023-07-31T03:08:56;17.50;71.90
78886;DHT22;68269;52.514;5.722;2023-07-31T03:11:26;17.40;72.00
78886;DHT22;68269;52.514;5.722;2023-07-31T03:13:56;17.50;72.00
78886;DHT22;68269;52.514;5.722;2023-07-31T03:16:26;17.50;72.00
78886;DHT22;68269;52.514;5.722;2023-07-31T03:18:58;17.50;72.10
78886;DHT22;68269;52.514;5.722;2023-07-31T03:21:27;17.50;72.10
78886;DHT22;68269;52.514;5.722;2023-07-31T03:23:56;17.50;72.10
78886;DHT22;68269;52.514;5.722;2023-07-31T03:26:25;17.50;72.10
78886;DHT22;68269;52.514;5.722;2023-07-31T03:28:56;17.50;72.10
78886;DHT22;68269;52.514;5.722;2023-07-31T03:31:26;17.50;72.10
78886;DHT22;68269;52.514;5.722;2023-07-31T03:33:58;17.50;72.10
78886;DHT22;68269;52.514;5.722;2023-07-31T03:36:28;17.50;72.20
78886;DHT22;68269;52.514;5.722;2023-07-31T03:38:58;17.50;72.20
78886;DHT22;68269;52.514;5.722;2023-07-31T03:41:27;17.50;72.20
78886;DHT22;68269;52.514;5.722;2023-07-31T03:43:56;17.40;72.20
78886;DHT22;68269;52.514;5.722;2023-07-31T03:46:26;17.40;72.30
78886;DHT22;68269;52.514;5.722;2023-07-31T03:48:57;17.40;72.40
78886;DHT22;68269;52.514;5.722;2023-07-31T03:51:27;17.40;72.40
78886;DHT22;68269;52.514;5.722;2023-07-31T03:53:56;17.40;72.40
78886;DHT22;68269;52.514;5.722;2023-07-31T03:56:26;17.40;72.50
78886;DHT22;68269;52.514;5.722;2023-07-31T03:58:55;17.40;72.50
78886;DHT22;68269;52.514;5.722;2023-07-31T04:01:24;17.40;72.50
78886;DHT22;68269;52.514;5.722;2023-07-31T04:03:54;17.40;72.50
78886;DHT22;68269;52.514;5.722;2023-07-31T04:06:26;17.40;72.50
78886;DHT22;68269;52.514;5.722;2023-07-31T04:08:55;17.40;72.50
78886;DHT22;68269;52.514;5.722;2023-07-31T04:11:24;17.40;72.50
78886;DHT22;68269;52.514;5.722;2023-07-31T04:13:53;17.40;72.50
78886;DHT22;68269;52.514;5.722;2023-07-31T04:16:23;17.40;72.50
78886;DHT22;68269;52.514;5.722;2023-07-31T04:18:52;17.40;72.60
78886;DHT22;68269;52.514;5.722;2023-07-31T04:21:22;17.40;72.60
78886;DHT22;68269;52.514;5.722;2023-07-31T04:23:53;17.40;72.70
78886;DHT22;68269;52.514;5.722;2023-07-31T04:26:24;17.40;72.70
78886;DHT22;68269;52.514;5.722;2023-07-31T04:28:54;17.40;72.70
78886;DHT22;68269;52.514;5.722;2023-07-31T04:31:23;17.40;72.70
78886;DHT22;68269;52.514;5.722;2023-07-31T04:33:52;17.40;72.70
78886;DHT22;68269;52.514;5.722;2023-07-31T04:36:22;17.40;72.70
78886;DHT22;68269;52.514;5.722;2023-07-31T04:38:54;17.40;72.70
78886;DHT22;68269;52.514;5.722;2023-07-31T04:41:23;17.40;72.80
78886;DHT22;68269;52.514;5.722;2023-07-31T04:43:52;17.40;72.80
78886;DHT22;68269;52.514;5.722;2023-07-31T04:46:21;17.40;72.80
78886;DHT22;68269;52.514;5.722;2023-07-31T04:48:51;17.40;72.80
78886;DHT22;68269;52.514;5.722;2023-07-31T04:51:20;17.50;72.80
78886;DHT22;68269;52.514;5.722;2023-07-31T04:53:49;17.50;72.80
78886;DHT22;68269;52.514;5.722;2023-07-31T04:56:21;17.50;72.80
78886;DHT22;68269;52.514;5.722;2023-07-31T04:58:51;17.50;72.80
78886;DHT22;68269;52.514;5.722;2023-07-31T05:01:20;17.50;72.80
78886;DHT22;68269;52.514;5.722;2023-07-31T05:03:49;17.50;72.80
78886;DHT22;68269;52.514;5.722;2023-07-31T05:06:19;17.40;72.80
78886;DHT22;68269;52.514;5.722;2023-07-31T05:08:49;17.40;72.80
78886;DHT22;68269;52.514;5.722;2023-07-31T05:11:20;17.40;72.90
78886;DHT22;68269;52.514;5.722;2023-07-31T05:13:50;17.40;72.90
78886;DHT22;68269;52.514;5.722;2023-07-31T05:16:19;17.40;72.90
78886;DHT22;68269;52.514;5.722;2023-07-31T05:18:48;17.40;72.90
78886;DHT22;68269;52.514;5.722;2023-07-31T05:21:18;17.40;73.00
78886;DHT22;68269;52.514;5.722;2023-07-31T05:23:47;17.40;72.90
78886;DHT22;68269;52.514;5.722;2023-07-31T05:26:16;17.40;72.90
78886;DHT22;68269;52.514;5.722;2023-07-31T05:28:48;17.40;72.90
78886;DHT22;68269;52.514;5.722;2023-07-31T05:31:18;17.40;72.90
78886;DHT22;68269;52.514;5.722;2023-07-31T05:33:48;17.50;72.90
78886;DHT22;68269;52.514;5.722;2023-07-31T05:36:18;17.50;72.80
78886;DHT22;68269;52.514;5.722;2023-07-31T05:38:48;17.50;72.90
78886;DHT22;68269;52.514;5.722;2023-07-31T05:41:17;17.40;73.00
78886;DHT22;68269;52.514;5.722;2023-07-31T05:43:50;17.40;73.00
78886;DHT22;68269;52.514;5.722;2023-07-31T05:46:19;17.50;73.00
78886;DHT22;68269;52.514;5.722;2023-07-31T05:48:49;17.40;73.00
78886;DHT22;68269;52.514;5.722;2023-07-31T05:51:18;17.40;73.10
78886;DHT22;68269;52.514;5.722;2023-07-31T05:53:47;17.40;73.20
78886;DHT22;68269;52.514;5.722;2023-07-31T05:56:16;17.40;73.20
78886;DHT22;68269;52.514;5.722;2023-07-31T05:58:48;17.30;73.20
78886;DHT22;68269;52.514;5.722;2023-07-31T06:01:18;17.30;73.20
78886;DHT22;68269;52.514;5.722;2023-07-31T06:03:47;17.30;73.20
78886;DHT22;68269;52.514;5.722;2023-07-31T06:06:16;17.20;73.30
78886;DHT22;68269;52.514;5.722;2023-07-31T06:08:46;17.20;73.30
78886;DHT22;68269;52.514;5.722;2023-07-31T06:11:16;17.20;73.40
78886;DHT22;68269;52.514;5.722;2023-07-31T06:13:45;17.20;73.30
78886;DHT22;68269;52.514;5.722;2023-07-31T06:16:18;17.20;73.30
78886;DHT22;68269;52.514;5.722;2023-07-31T06:18:47;17.20;73.30
78886;DHT22;68269;52.514;5.722;2023-07-31T06:21:17;17.20;73.30
78886;DHT22;68269;52.514;5.722;2023-07-31T06:23:46;17.20;73.30
78886;DHT22;68269;52.514;5.722;2023-07-31T06:26:15;17.20;73.30
78886;DHT22;68269;52.514;5.722;2023-07-31T06:28:45;17.20;73.30
78886;DHT22;68269;52.514;5.722;2023-07-31T06:31:17;17.20;73.30
78886;DHT22;68269;52.514;5.722;2023-07-31T06:33:49;17.20;73.30
78886;DHT22;68269;52.514;5.722;2023-07-31T06:36:18;17.20;73.20
78886;DHT22;68269;52.514;5.722;2023-07-31T06:38:48;17.30;73.20
78886;DHT22;68269;52.514;5.722;2023-07-31T06:41:17;17.20;73.30
78886;DHT22;68269;52.514;5.722;2023-07-31T06:43:47;17.20;73.30
78886;DHT22;68269;52.514;5.722;2023-07-31T06:46:19;17.20;73.30
78886;DHT22;68269;52.514;5.722;2023-07-31T06:48:48;17.20;73.40
78886;DHT22;68269;52.514;5.722;2023-07-31T06:51:17;17.20;73.40
78886;DHT22;68269;52.514;5.722;2023-07-31T06:53:47;17.10;73.50
78886;DHT22;68269;52.514;5.722;2023-07-31T06:56:16;17.10;73.50
78886;DHT22;68269;52.514;5.722;2023-07-31T06:58:45;17.10;73.60
78886;DHT22;68269;52.514;5.722;2023-07-31T07:01:14;17.10;73.60
78886;DHT22;68269;52.514;5.722;2023-07-31T07:03:46;17.10;73.50
78886;DHT22;68269;52.514;5.722;2023-07-31T07:06:17;17.20;73.50
78886;DHT22;68269;52.514;5.722;2023-07-31T07:08:46;17.20;73.50
78886;DHT22;68269;52.514;5.722;2023-07-31T07:11:15;17.20;73.50
78886;DHT22;68269;52.514;5.722;2023-07-31T07:13:45;17.20;73.60
78886;DHT22;68269;52.514;5.722;2023-07-31T07:16:14;17.20;73.60
78886;DHT22;68269;52.514;5.722;2023-07-31T07:18:46;17.20;73.60
78886;DHT22;68269;52.514;5.722;2023-07-31T07:21:15;17.20;73.60
78886;DHT22;68269;52.514;5.722;2023-07-31T07:23:45;17.20;73.60
78886;DHT22;68269;52.514;5.722;2023-07-31T07:26:14;17.20;73.70
78886;DHT22;68269;52.514;5.722;2023-07-31T07:28:43;17.20;73.70
78886;DHT22;68269;52.514;5.722;2023-07-31T07:31:13;17.30;73.70
78886;DHT22;68269;52.514;5.722;2023-07-31T07:33:42;17.40;73.70
78886;DHT22;68269;52.514;5.722;2023-07-31T07:36:14;17.40;73.60
78886;DHT22;68269;52.514;5.722;2023-07-31T07:38:43;17.40;73.70
78886;DHT22;68269;52.514;5.722;2023-07-31T07:41:13;17.50;73.70
78886;DHT22;68269;52.514;5.722;2023-07-31T07:43:42;17.50;73.60
78886;DHT22;68269;52.514;5.722;2023-07-31T07:46:11;17.50;73.70
78886;DHT22;68269;52.514;5.722;2023-07-31T07:48:41;17.50;73.70
78886;DHT22;68269;52.514;5.722;2023-07-31T07:51:10;17.50;73.70
78886;DHT22;68269;52.514;5.722;2023-07-31T07:53:42;17.50;73.80
78886;DHT22;68269;52.514;5.722;2023-07-31T07:56:11;17.50;73.80
78886;DHT22;68269;52.514;5.722;2023-07-31T07:58:41;17.50;73.80
78886;DHT22;68269;52.514;5.722;2023-07-31T08:01:10;17.60;73.70
78886;DHT22;68269;52.514;5.722;2023-07-31T08:03:39;17.60;73.80
78886;DHT22;68269;52.514;5.722;2023-07-31T08:06:09;17.60;73.80
78886;DHT22;68269;52.514;5.722;2023-07-31T08:08:39;17.60;73.80
78886;DHT22;68269;52.514;5.722;2023-07-31T08:11:10;17.60;73.90
78886;DHT22;68269;52.514;5.722;2023-07-31T08:13:40;17.60;73.90
78886;DHT22;68269;52.514;5.722;2023-07-31T08:16:09;17.70;73.90
78886;DHT22;68269;52.514;5.722;2023-07-31T08:18:38;17.70;73.90
78886;DHT22;68269;52.514;5.722;2023-07-31T08:21:09;17.80;73.90
78886;DHT22;68269;52.514;5.722;2023-07-31T08:23:38;17.80;73.90
78886;DHT22;68269;52.514;5.722;2023-07-31T08:26:14;17.80;73.90
78886;DHT22;68269;52.514;5.722;2023-07-31T08:28:44;17.80;73.90
78886;DHT22;68269;52.514;5.722;2023-07-31T08:31:13;17.80;73.90
78886;DHT22;68269;52.514;5.722;2023-07-31T08:33:43;17.80;74.00
78886;DHT22;68269;52.514;5.722;2023-07-31T08:36:12;17.80;74.00
78886;DHT22;68269;52.514;5.722;2023-07-31T08:38:41;17.80;74.00
78886;DHT22;68269;52.514;5.722;2023-07-31T08:41:13;17.90;74.00
78886;DHT22;68269;52.514;5.722;2023-07-31T08:43:44;17.90;74.10
78886;DHT22;68269;52.514;5.722;2023-07-31T08:46:14;17.90;74.10
78886;DHT22;68269;52.514;5.722;2023-07-31T08:48:44;17.90;74.10
78886;DHT22;68269;52.514;5.722;2023-07-31T08:51:14;18.00;74.10
78886;DHT22;68269;52.514;5.722;2023-07-31T08:53:43;18.00;74.00
78886;DHT22;68269;52.514;5.722;2023-07-31T08:56:16;18.10;74.10
78886;DHT22;68269;52.514;5.722;2023-07-31T08:58:47;18.10;74.00
78886;DHT22;68269;52.514;5.722;2023-07-31T09:01:27;18.20;74.10
78886;DHT22;68269;52.514;5.722;2023-07-31T09:04:04;18.20;74.10
78886;DHT22;68269;52.514;5.722;2023-07-31T09:15:46;18.20;74.20
78886;DHT22;68269;52.514;5.722;2023-07-31T09:18:25;18.20;74.20
78886;DHT22;68269;52.514;5.722;2023-07-31T09:21:03;18.20;74.20
78886;DHT22;68269;52.514;5.722;2023-07-31T09:23:44;18.30;74.20
78886;DHT22;68269;52.514;5.722;2023-07-31T09:31:43;18.30;74.30
78886;DHT22;68269;52.514;5.722;2023-07-31T09:37:01;18.30;74.20
78886;DHT22;68269;52.514;5.722;2023-07-31T09:39:30;18.30;74.30
78886;DHT22;68269;52.514;5.722;2023-07-31T09:42:00;18.40;74.30
78886;DHT22;68269;52.514;5.722;2023-07-31T09:44:39;18.40;74.40
78886;DHT22;68269;52.514;5.722;2023-07-31T09:47:25;18.50;74.40
78886;DHT22;68269;52.514;5.722;2023-07-31T09:49:57;18.50;74.40
78886;DHT22;68269;52.514;5.722;2023-07-31T09:52:26;18.60;74.30
78886;DHT22;68269;52.514;5.722;2023-07-31T09:54:56;18.60;74.30
78886;DHT22;68269;52.514;5.722;2023-07-31T09:57:26;18.70;74.30
78886;DHT22;68269;52.514;5.722;2023-07-31T09:59:56;18.70;74.40
78886;DHT22;68269;52.514;5.722;2023-07-31T10:02:29;18.70;74.40
78886;DHT22;68269;52.514;5.722;2023-07-31T10:04:59;18.70;74.50
78886;DHT22;68269;52.514;5.722;2023-07-31T10:07:31;18.70;74.50
78886;DHT22;68269;52.514;5.722;2023-07-31T10:10:04;18.80;74.60
78886;DHT22;68269;52.514;5.722;2023-07-31T10:12:36;18.80;74.70
78886;DHT22;68269;52.514;5.722;2023-07-31T10:15:06;18.80;74.70
78886;DHT22;68269;52.514;5.722;2023-07-31T10:17:40;18.70;74.80
78886;DHT22;68269;52.514;5.722;2023-07-31T10:20:11;18.80;74.80
78886;DHT22;68269;52.514;5.722;2023-07-31T10:22:40;18.70;74.90
78886;DHT22;68269;52.514;5.722;2023-07-31T10:25:10;18.70;74.90
78886;DHT22;68269;52.514;5.722;2023-07-31T10:27:40;18.70;74.90
78886;DHT22;68269;52.514;5.722;2023-07-31T10:30:12;18.70;75.00
78886;DHT22;68269;52.514;5.722;2023-07-31T10:32:45;18.80;75.00
78886;DHT22;68269;52.514;5.722;2023-07-31T10:35:17;18.80;75.00
78886;DHT22;68269;52.514;5.722;2023-07-31T10:37:48;18.90;74.90
78886;DHT22;68269;52.514;5.722;2023-07-31T10:40:26;18.90;74.90
78886;DHT22;68269;52.514;5.722;2023-07-31T10:42:56;18.90;74.90
78886;DHT22;68269;52.514;5.722;2023-07-31T10:45:31;19.00;74.90
78886;DHT22;68269;52.514;5.722;2023-07-31T10:48:06;19.00;74.90
78886;DHT22;68269;52.514;5.722;2023-07-31T10:50:38;19.10;74.80
78886;DHT22;68269;52.514;5.722;2023-07-31T10:53:23;19.10;74.80
78886;DHT22;68269;52.514;5.722;2023-07-31T10:55:53;19.10;74.80
78886;DHT22;68269;52.514;5.722;2023-07-31T10:58:27;19.10;74.80
78886;DHT22;68269;52.514;5.722;2023-07-31T11:00:59;19.10;74.90
78886;DHT22;68269;52.514;5.722;2023-07-31T11:03:45;19.10;75.00
78886;DHT22;68269;52.514;5.722;2023-07-31T11:06:16;19.10;75.10
78886;DHT22;68269;52.514;5.722;2023-07-31T11:08:47;19.10;75.10
78886;DHT22;68269;52.514;5.722;2023-07-31T11:11:18;19.10;75.10
78886;DHT22;68269;52.514;5.722;2023-07-31T11:13:49;19.20;75.10
78886;DHT22;68269;52.514;5.722;2023-07-31T11:16:20;19.20;75.00
78886;DHT22;68269;52.514;5.722;2023-07-31T11:18:53;19.20;75.00
78886;DHT22;68269;52.514;5.722;2023-07-31T11:21:24;19.20;75.00
78886;DHT22;68269;52.514;5.722;2023-07-31T11:23:56;19.20;75.00
78886;DHT22;68269;52.514;5.722;2023-07-31T11:26:26;19.30;75.00
78886;DHT22;68269;52.514;5.722;2023-07-31T11:28:57;19.30;75.00
78886;DHT22;68269;52.514;5.722;2023-07-31T11:31:26;19.40;75.00
78886;DHT22;68269;52.514;5.722;2023-07-31T11:34:07;19.50;74.80
78886;DHT22;68269;52.514;5.722;2023-07-31T11:36:36;19.50;74.70
78886;DHT22;68269;52.514;5.722;2023-07-31T11:39:07;19.50;74.70
78886;DHT22;68269;52.514;5.722;2023-07-31T11:41:36;19.50;74.70
78886;DHT22;68269;52.514;5.722;2023-07-31T11:44:09;19.60;74.70
78886;DHT22;68269;52.514;5.722;2023-07-31T11:46:39;19.60;74.80
78886;DHT22;68269;52.514;5.722;2023-07-31T11:49:11;19.70;74.70
78886;DHT22;68269;52.514;5.722;2023-07-31T11:51:40;19.70;74.80
78886;DHT22;68269;52.514;5.722;2023-07-31T11:54:10;19.70;74.90
78886;DHT22;68269;52.514;5.722;2023-07-31T11:56:40;19.60;74.90
78886;DHT22;68269;52.514;5.722;2023-07-31T11:59:09;19.50;74.90
78886;DHT22;68269;52.514;5.722;2023-07-31T12:01:39;19.50;75.00
78886;DHT22;68269;52.514;5.722;2023-07-31T12:04:12;19.50;75.10
78886;DHT22;68269;52.514;5.722;2023-07-31T12:06:41;19.40;75.20
78886;DHT22;68269;52.514;5.722;2023-07-31T12:09:10;19.50;75.10
78886;DHT22;68269;52.514;5.722;2023-07-31T12:11:43;19.50;75.00
78886;DHT22;68269;52.514;5.722;2023-07-31T12:14:20;19.50;74.90
78886;DHT22;68269;52.514;5.722;2023-07-31T12:16:53;19.60;74.90
78886;DHT22;68269;52.514;5.722;2023-07-31T12:19:26;19.60;74.90
78886;DHT22;68269;52.514;5.722;2023-07-31T12:21:57;19.60;75.00
78886;DHT22;68269;52.514;5.722;2023-07-31T12:24:27;19.60;74.90
78886;DHT22;68269;52.514;5.722;2023-07-31T12:26:56;19.60;75.00
78886;DHT22;68269;52.514;5.722;2023-07-31T12:29:34;19.50;75.00
78886;DHT22;68269;52.514;5.722;2023-07-31T12:32:04;19.50;75.00
78886;DHT22;68269;52.514;5.722;2023-07-31T12:34:42;19.60;75.00
78886;DHT22;68269;52.514;5.722;2023-07-31T12:37:12;19.60;75.00
78886;DHT22;68269;52.514;5.722;2023-07-31T12:39:42;19.70;74.90
78886;DHT22;68269;52.514;5.722;2023-07-31T12:42:11;19.70;74.90
78886;DHT22;68269;52.514;5.722;2023-07-31T12:44:41;19.70;74.80
78886;DHT22;68269;52.514;5.722;2023-07-31T12:47:10;19.70;74.80
78886;DHT22;68269;52.514;5.722;2023-07-31T12:49:44;19.70;74.70
78886;DHT22;68269;52.514;5.722;2023-07-31T12:52:13;19.70;74.70
78886;DHT22;68269;52.514;5.722;2023-07-31T12:54:42;19.80;74.70
78886;DHT22;68269;52.514;5.722;2023-07-31T12:57:12;19.80;74.70
78886;DHT22;68269;52.514;5.722;2023-07-31T12:59:41;19.80;74.70
78886;DHT22;68269;52.514;5.722;2023-07-31T13:02:11;19.80;74.70
78886;DHT22;68269;52.514;5.722;2023-07-31T13:04:43;19.80;74.70
78886;DHT22;68269;52.514;5.722;2023-07-31T13:07:12;19.70;74.80
78886;DHT22;68269;52.514;5.722;2023-07-31T13:09:41;19.70;74.90
78886;DHT22;68269;52.514;5.722;2023-07-31T13:12:11;19.70;74.90
78886;DHT22;68269;52.514;5.722;2023-07-31T13:14:40;19.70;74.90
78886;DHT22;68269;52.514;5.722;2023-07-31T13:17:09;19.70;74.90
78886;DHT22;68269;52.514;5.722;2023-07-31T13:19:38;19.70;74.90
78886;DHT22;68269;52.514;5.722;2023-07-31T13:22:10;19.80;74.80
78886;DHT22;68269;52.514;5.722;2023-07-31T13:24:40;19.80;74.80
78886;DHT22;68269;52.514;5.722;2023-07-31T13:27:09;19.80;74.80
78886;DHT22;68269;52.514;5.722;2023-07-31T13:29:38;19.90;74.70
78886;DHT22;68269;52.514;5.722;2023-07-31T13:32:08;19.90;74.70
78886;DHT22;68269;52.514;5.722;2023-07-31T13:34:37;19.80;74.70
78886;DHT22;68269;52.514;5.722;2023-07-31T13:37:06;19.70;74.80
78886;DHT22;68269;52.514;5.722;2023-07-31T13:39:39;19.70;74.80
78886;DHT22;68269;52.514;5.722;2023-07-31T13:42:09;19.70;74.80
78886;DHT22;68269;52.514;5.722;2023-07-31T13:44:39;19.70;74.80
78886;DHT22;68269;52.514;5.722;2023-07-31T13:47:09;19.80;74.80
78886;DHT22;68269;52.514;5.722;2023-07-31T13:49:38;19.90;74.70
78886;DHT22;68269;52.514;5.722;2023-07-31T13:52:09;20.00;74.60
78886;DHT22;68269;52.514;5.722;2023-07-31T13:54:44;20.10;74.40
78886;DHT22;68269;52.514;5.722;2023-07-31T13:57:13;20.10;74.30
78886;DHT22;68269;52.514;5.722;2023-07-31T13:59:43;20.20;74.30
78886;DHT22;68269;52.514;5.722;2023-07-31T14:02:12;20.20;74.40
78886;DHT22;68269;52.514;5.722;2023-07-31T14:04:42;20.20;74.40
78886;DHT22;68269;52.514;5.722;2023-07-31T14:07:11;20.20;74.40
78886;DHT22;68269;52.514;5.722;2023-07-31T14:09:41;20.10;74.40
78886;DHT22;68269;52.514;5.722;2023-07-31T14:12:12;20.10;74.40
78886;DHT22;68269;52.514;5.722;2023-07-31T14:14:42;20.10;74.40
78886;DHT22;68269;52.514;5.722;2023-07-31T14:17:11;20.10;74.40
78886;DHT22;68269;52.514;5.722;2023-07-31T14:19:40;20.10;74.40
78886;DHT22;68269;52.514;5.722;2023-07-31T14:22:10;20.10;74.40
78886;DHT22;68269;52.514;5.722;2023-07-31T14:24:39;20.20;74.30
78886;DHT22;68269;52.514;5.722;2023-07-31T14:27:08;20.10;74.30
78886;DHT22;68269;52.514;5.722;2023-07-31T14:29:40;20.10;74.30
78886;DHT22;68269;52.514;5.722;2023-07-31T14:32:10;20.10;74.30
78886;DHT22;68269;52.514;5.722;2023-07-31T14:34:39;20.00;74.30
78886;DHT22;68269;52.514;5.722;2023-07-31T14:37:08;20.00;74.30
78886;DHT22;68269;52.514;5.722;2023-07-31T14:39:38;20.00;74.30
78886;DHT22;68269;52.514;5.722;2023-07-31T14:42:07;19.90;74.40
78886;DHT22;68269;52.514;5.722;2023-07-31T14:44:36;19.80;74.60
78886;DHT22;68269;52.514;5.722;2023-07-31T14:47:08;19.70;74.70
78886;DHT22;68269;52.514;5.722;2023-07-31T14:49:38;19.60;74.90
78886;DHT22;68269;52.514;5.722;2023-07-31T14:52:07;19.50;75.00
78886;DHT22;68269;52.514;5.722;2023-07-31T14:54:36;19.50;75.10
78886;DHT22;68269;52.514;5.722;2023-07-31T14:57:06;19.40;75.10
78886;DHT22;68269;52.514;5.722;2023-07-31T14:59:35;19.30;75.20
78886;DHT22;68269;52.514;5.722;2023-07-31T15:02:08;19.30;75.20
78886;DHT22;68269;52.514;5.722;2023-07-31T15:04:38;19.30;75.20
78886;DHT22;68269;52.514;5.722;2023-07-31T15:07:07;19.30;75.20
78886;DHT22;68269;52.514;5.722;2023-07-31T15:09:37;19.30;75.20
78886;DHT22;68269;52.514;5.722;2023-07-31T15:12:07;19.30;75.10
78886;DHT22;68269;52.514;5.722;2023-07-31T15:14:37;19.30;75.10
78886;DHT22;68269;52.514;5.722;2023-07-31T15:17:09;19.30;75.00
78886;DHT22;68269;52.514;5.722;2023-07-31T15:19:38;19.40;75.00
78886;DHT22;68269;52.514;5.722;2023-07-31T15:22:08;19.40;75.00
78886;DHT22;68269;52.514;5.722;2023-07-31T15:24:37;19.40;75.00
78886;DHT22;68269;52.514;5.722;2023-07-31T15:27:07;19.40;75.00
78886;DHT22;68269;52.514;5.722;2023-07-31T15:29:36;19.40;75.00
78886;DHT22;68269;52.514;5.722;2023-07-31T15:32:08;19.40;75.00
78886;DHT22;68269;52.514;5.722;2023-07-31T15:34:38;19.40;75.10
78886;DHT22;68269;52.514;5.722;2023-07-31T15:37:07;19.40;75.00
78886;DHT22;68269;52.514;5.722;2023-07-31T15:39:36;19.40;75.10
78886;DHT22;68269;52.514;5.722;2023-07-31T15:42:06;19.40;75.00
78886;DHT22;68269;52.514;5.722;2023-07-31T15:44:35;19.40;75.10
78886;DHT22;68269;52.514;5.722;2023-07-31T15:47:08;19.50;75.10
78886;DHT22;68269;52.514;5.722;2023-07-31T15:49:37;19.50;75.10
78886;DHT22;68269;52.514;5.722;2023-07-31T15:52:07;19.50;75.00
78886;DHT22;68269;52.514;5.722;2023-07-31T15:54:36;19.50;75.00
78886;DHT22;68269;52.514;5.722;2023-07-31T15:57:06;19.50;75.00
78886;DHT22;68269;52.514;5.722;2023-07-31T15:59:35;19.50;75.10
78886;DHT22;68269;52.514;5.722;2023-07-31T16:02:08;19.50;75.10
78886;DHT22;68269;52.514;5.722;2023-07-31T16:04:40;19.50;75.10
78886;DHT22;68269;52.514;5.722;2023-07-31T16:07:09;19.50;75.20